Terminal Aerodrome Forecast
Issued by NWS

Home | Current Version | Previous Version | Text Only | Print | Product List | Glossary On
Versions: 1 2 3 4 5 6 7 8 9 10 11 12 13 14 15 16
096
FTUS41 KPBZ 280838 AAA
TAFLBE
TAF AMD
KLBE 280838Z 2809/2906 VRB03KT P6SM OVC025
     FM281200 06004KT P6SM -SHRA OVC015
     FM281900 06005KT 3SM +SHRA OVC020
     FM290100 06007KT 2SM SHRA BR OVC010=

USA.gov is the U.S. government's official web portal to all federal, state and local government web resources and services.